Time;durP1;ratioP1;P1;durP2;ratioP2;P2;SDS_P1;SDS_P2;PMS_P1;PMS_P2;Temp;Humidity;BMP_temperature;BMP_pressure;BME280_temperature;BME280_humidity;BME280_pressure;Samples;Min_cycle;Max_cycle;Signal;HPM_P1;HPM_P2
2023/06/07 00:00:47;;;;;;;14.50;4.60;;;;;;;14.34;68.32;102190.06;7396594;19;20018;-53
2023/06/07 00:03:14;;;;;;;14.80;5.45;;;;;;;14.36;68.40;102189.97;7397510;19;20340;-54
2023/06/07 00:05:43;;;;;;;15.05;4.80;;;;;;;14.42;68.03;102192.22;7395494;19;20015;-54
2023/06/07 00:08:10;;;;;;;13.75;4.35;;;;;;;14.32;68.55;102194.66;7397825;19;20015;-48
2023/06/07 00:10:37;;;;;;;15.50;4.80;;;;;;;14.38;68.11;102182.72;7394426;19;20014;-47
2023/06/07 00:13:05;;;;;;;13.75;4.97;;;;;;;14.39;68.08;102182.63;7396064;19;20015;-48
2023/06/07 00:15:32;;;;;;;12.00;4.65;;;;;;;14.23;68.52;102181.94;7392686;19;20632;-52
2023/06/07 00:17:59;;;;;;;13.93;4.40;;;;;;;14.22;68.64;102188.22;7391723;19;20031;-52
2023/06/07 00:20:28;;;;;;;18.63;5.10;;;;;;;14.11;69.14;102186.25;7394489;19;20021;-52
2023/06/07 00:22:55;;;;;;;13.65;4.93;;;;;;;14.25;68.39;102181.84;7393896;19;20082;-54
2023/06/07 00:25:23;;;;;;;12.75;4.88;;;;;;;14.22;68.51;102182.03;7392273;19;20022;-52
2023/06/07 00:27:51;;;;;;;15.07;5.63;;;;;;;14.07;69.25;102179.41;7395260;19;20014;-53
2023/06/07 00:30:19;;;;;;;14.10;5.00;;;;;;;14.14;68.86;102175.41;7396162;19;20010;-53
2023/06/07 00:32:46;;;;;;;13.23;5.50;;;;;;;14.11;68.91;102177.41;7395264;19;20090;-54
2023/06/07 00:35:14;;;;;;;15.50;5.30;;;;;;;14.07;69.18;102183.88;7395474;19;20014;-50
2023/06/07 00:37:41;;;;;;;14.13;4.80;;;;;;;14.18;68.73;102173.38;7395954;19;20086;-51
2023/06/07 00:40:09;;;;;;;14.35;5.22;;;;;;;14.07;69.10;102175.91;7395850;19;20019;-49
2023/06/07 00:42:36;;;;;;;15.65;5.10;;;;;;;14.08;69.21;102175.81;7395169;19;20082;-49
2023/06/07 00:45:03;;;;;;;15.45;5.70;;;;;;;14.17;68.87;102181.50;7395391;19;20486;-51
2023/06/07 00:47:31;;;;;;;13.63;5.03;;;;;;;14.07;69.01;102176.75;7395949;19;20074;-51
2023/06/07 00:49:58;;;;;;;14.50;5.35;;;;;;;14.01;69.03;102185.16;7395728;19;20022;-53
2023/06/07 00:52:26;;;;;;;14.98;5.05;;;;;;;14.03;69.35;102188.56;7395254;19;20039;-48
2023/06/07 00:54:54;;;;;;;13.93;5.40;;;;;;;14.11;68.94;102182.72;7394082;19;20082;-50
2023/06/07 00:57:21;;;;;;;15.95;5.43;;;;;;;14.09;68.98;102193.50;7392553;19;20022;-50
2023/06/07 00:59:49;;;;;;;13.75;5.20;;;;;;;14.02;69.19;102183.34;7394703;19;20014;-50
2023/06/07 01:02:17;;;;;;;15.25;5.32;;;;;;;13.74;70.06;102190.47;7394255;19;20014;-47
2023/06/07 01:04:44;;;;;;;16.65;5.43;;;;;;;13.87;69.87;102186.03;7394859;19;20021;-50
2023/06/07 01:07:12;;;;;;;13.35;4.95;;;;;;;13.81;69.74;102178.47;7393418;19;20056;-53
2023/06/07 01:09:39;;;;;;;13.63;5.05;;;;;;;13.85;69.87;102190.63;7393743;19;20120;-52
2023/06/07 01:12:13;;;;;;;14.25;5.55;;;;;;;13.71;70.30;102193.31;7394118;19;20022;-55
2023/06/07 01:14:42;;;;;;;17.75;6.13;;;;;;;13.64;70.32;102184.84;7392729;19;20378;-54
2023/06/07 01:17:12;;;;;;;15.52;5.38;;;;;;;13.72;70.07;102187.03;7393093;19;20026;-53
2023/06/07 01:19:42;;;;;;;14.05;5.15;;;;;;;13.68;70.14;102182.84;7393098;19;20394;-54
2023/06/07 01:22:10;;;;;;;12.40;4.80;;;;;;;13.71;70.21;102185.31;7393581;19;20022;-54
2023/06/07 01:24:42;;;;;;;15.85;5.75;;;;;;;13.72;70.01;102188.84;7393252;19;20018;-52
2023/06/07 01:27:10;;;;;;;15.40;5.72;;;;;;;13.58;70.39;102181.72;7392827;19;20019;-57
2023/06/07 01:29:38;;;;;;;15.15;5.32;;;;;;;13.50;70.94;102176.03;7394596;19;20015;-55
2023/06/07 01:32:07;;;;;;;14.88;5.53;;;;;;;13.63;70.54;102179.66;7394267;19;20482;-52
2023/06/07 01:34:35;;;;;;;17.08;5.43;;;;;;;13.70;70.15;102180.97;7392707;19;20010;-53
2023/06/07 01:37:04;;;;;;;13.88;5.53;;;;;;;13.77;70.01;102178.75;7390493;19;20043;-52
2023/06/07 01:39:32;;;;;;;16.65;5.82;;;;;;;13.68;70.16;102179.34;7390287;19;20047;-52
2023/06/07 01:42:01;;;;;;;14.93;5.80;;;;;;;13.65;70.35;102180.38;7392869;19;20019;-52
2023/06/07 01:44:29;;;;;;;16.67;5.90;;;;;;;13.64;70.46;102194.66;7392166;19;20023;-51
2023/06/07 01:46:56;;;;;;;15.82;5.25;;;;;;;13.56;70.75;102188.97;7392083;19;20029;-50
2023/06/07 01:49:23;;;;;;;12.60;5.13;;;;;;;13.52;70.77;102177.66;7392114;19;20019;-50
2023/06/07 01:51:50;;;;;;;15.43;5.82;;;;;;;13.55;70.62;102187.25;7393127;19;20114;-52
2023/06/07 01:54:18;;;;;;;16.52;5.00;;;;;;;13.64;70.54;102190.19;7391649;19;20015;-51
2023/06/07 01:57:04;;;;;;;17.83;4.90;;;;;;;13.62;70.58;102183.22;7391988;19;20018;-51
2023/06/07 02:00:05;;;;;;;15.40;5.05;;;;;;;13.58;70.63;102179.94;7391770;19;20047;-52
2023/06/07 02:02:51;;;;;;;18.80;5.50;;;;;;;13.39;71.35;102182.91;7390771;19;20020;-53
2023/06/07 02:05:44;;;;;;;17.70;5.20;;;;;;;13.45;71.30;102180.81;7392752;19;20472;-49
2023/06/07 02:08:27;;;;;;;14.93;5.50;;;;;;;13.51;70.99;102175.94;7393049;19;20487;-49
2023/06/07 02:10:55;;;;;;;14.70;4.95;;;;;;;13.53;70.99;102183.81;7391784;19;20017;-49
2023/06/07 02:13:23;;;;;;;14.93;4.82;;;;;;;13.57;70.76;102180.88;7393321;19;20061;-49
2023/06/07 02:15:50;;;;;;;15.90;5.15;;;;;;;13.44;71.26;102176.44;7390272;19;20018;-56
2023/06/07 02:18:20;;;;;;;16.85;5.47;;;;;;;13.51;71.20;102173.28;7391852;19;20021;-55
2023/06/07 02:20:48;;;;;;;16.63;5.13;;;;;;;13.48;71.12;102176.16;7389710;19;20021;-56
2023/06/07 02:23:15;;;;;;;13.77;4.80;;;;;;;13.44;71.04;102176.44;7392023;19;20014;-54
2023/06/07 02:25:42;;;;;;;14.90;5.32;;;;;;;13.40;70.78;102173.97;7390274;19;20039;-49
2023/06/07 02:28:10;;;;;;;17.00;5.25;;;;;;;13.28;71.94;102171.19;7393061;19;20035;-50
2023/06/07 02:30:37;;;;;;;15.02;5.45;;;;;;;13.21;71.83;102181.34;7391820;19;20018;-52
2023/06/07 02:33:05;;;;;;;15.90;5.25;;;;;;;13.25;71.88;102176.72;7392361;19;20026;-47
2023/06/07 02:35:32;;;;;;;13.50;5.50;;;;;;;13.34;71.65;102171.66;7392284;19;20043;-52
2023/06/07 02:37:59;;;;;;;14.18;5.10;;;;;;;13.36;71.59;102168.94;7391519;19;20026;-52
2023/06/07 02:40:27;;;;;;;12.85;5.22;;;;;;;13.35;71.60;102170.72;7389752;19;20018;-50
2023/06/07 02:42:54;;;;;;;15.98;5.18;;;;;;;13.26;71.78;102167.78;7391456;19;20022;-50
2023/06/07 02:45:21;;;;;;;19.45;5.40;;;;;;;13.29;71.51;102179.09;7391361;19;20014;-52
2023/06/07 02:47:48;;;;;;;16.77;5.57;;;;;;;13.23;72.03;102170.59;7391463;19;20036;-53
2023/06/07 02:50:15;;;;;;;19.08;5.00;;;;;;;13.22;71.96;102172.41;7391732;19;20082;-53
2023/06/07 02:52:44;;;;;;;15.65;5.18;;;;;;;13.26;71.91;102178.44;7390963;19;20081;-53
2023/06/07 02:55:11;;;;;;;19.88;5.47;;;;;;;13.12;72.47;102179.25;7391541;19;20085;-48
2023/06/07 02:57:38;;;;;;;17.30;5.40;;;;;;;13.23;71.75;102171.50;7391708;19;20110;-51
2023/06/07 03:00:10;;;;;;;14.93;4.93;;;;;;;13.19;72.00;102172.59;7389211;19;20060;-52
2023/06/07 03:02:38;;;;;;;14.15;5.30;;;;;;;13.11;72.32;102177.53;7390463;19;20018;-51
2023/06/07 03:05:06;;;;;;;16.00;5.18;;;;;;;13.21;72.09;102169.88;7391279;19;20018;-53
2023/06/07 03:07:37;;;;;;;16.65;5.18;;;;;;;13.30;71.76;102170.16;7391096;19;20081;-51
2023/06/07 03:10:04;;;;;;;15.13;5.50;;;;;;;13.35;71.41;102181.34;7390974;19;20078;-52
2023/06/07 03:12:32;;;;;;;19.52;5.75;;;;;;;13.36;71.34;102171.59;7390536;19;20375;-50
2023/06/07 03:14:59;;;;;;;19.23;5.63;;;;;;;13.33;71.65;102167.31;7389240;19;20393;-49
2023/06/07 03:17:26;;;;;;;14.63;5.47;;;;;;;13.34;71.71;102163.69;7389360;19;20026;-48
2023/06/07 03:19:54;;;;;;;18.88;5.15;;;;;;;13.24;71.97;102154.59;7389343;19;20053;-48
2023/06/07 03:22:21;;;;;;;14.25;5.60;;;;;;;13.25;71.91;102156.31;7390104;19;20086;-50
2023/06/07 03:24:51;;;;;;;16.73;5.15;;;;;;;13.17;72.22;102154.09;7390968;19;20018;-52
2023/06/07 03:27:22;;;;;;;12.00;4.88;;;;;;;13.26;71.90;102155.34;7388870;19;20022;-52
2023/06/07 03:29:50;;;;;;;15.80;5.10;;;;;;;13.15;72.25;102150.66;7391309;19;20027;-51
2023/06/07 03:32:17;;;;;;;16.60;5.40;;;;;;;13.08;72.62;102161.75;7389004;19;20022;-51
2023/06/07 03:34:44;;;;;;;17.00;5.25;;;;;;;13.00;73.17;102150.75;7398265;19;20039;-52
2023/06/07 03:37:11;;;;;;;16.52;5.15;;;;;;;13.06;73.13;102151.22;7394916;19;20466;-52
2023/06/07 03:39:38;;;;;;;15.40;5.22;;;;;;;13.31;71.94;102157.72;7395523;19;20022;-50
2023/06/07 03:42:06;;;;;;;18.42;5.07;;;;;;;13.37;71.84;102146.69;7397093;19;20030;-51
2023/06/07 03:44:34;;;;;;;16.30;5.25;;;;;;;13.43;71.21;102148.09;7398075;19;20042;-48
2023/06/07 03:47:01;;;;;;;17.10;5.88;;;;;;;13.30;71.98;102156.00;7394639;19;20026;-48
2023/06/07 03:49:28;;;;;;;14.75;5.70;;;;;;;13.16;72.45;102152.38;7397371;19;20028;-48
2023/06/07 03:51:55;;;;;;;15.27;5.55;;;;;;;13.36;71.77;102155.63;7397264;19;20045;-47
2023/06/07 03:54:22;;;;;;;20.52;5.95;;;;;;;13.32;71.71;102156.78;7397003;19;20019;-48
2023/06/07 03:56:49;;;;;;;18.52;5.57;;;;;;;13.43;71.69;102151.59;7394923;19;20019;-48
2023/06/07 03:59:19;;;;;;;17.33;5.50;;;;;;;13.47;71.39;102146.94;7393952;19;20039;-48
2023/06/07 04:01:49;;;;;;;17.77;5.38;;;;;;;13.56;71.13;102157.03;7396829;19;20026;-48
2023/06/07 04:04:16;;;;;;;14.45;4.88;;;;;;;13.49;71.32;102159.22;7396608;19;20025;-48
2023/06/07 04:06:44;;;;;;;18.83;5.35;;;;;;;13.39;71.88;102161.63;7396058;19;20092;-55
2023/06/07 04:09:15;;;;;;;16.42;5.47;;;;;;;13.42;71.62;102168.53;7396945;19;20021;-55
2023/06/07 04:11:42;;;;;;;19.38;5.18;;;;;;;13.39;71.94;102161.63;7396412;19;20026;-54
2023/06/07 04:14:09;;;;;;;17.55;5.20;;;;;;;13.37;72.42;102171.50;7396782;19;20039;-52
2023/06/07 04:16:36;;;;;;;14.73;4.90;;;;;;;13.54;71.48;102167.75;7395740;19;20018;-53
2023/06/07 04:19:04;;;;;;;14.57;4.72;;;;;;;13.61;71.34;102170.88;7393800;19;20038;-50
2023/06/07 04:21:32;;;;;;;15.25;5.15;;;;;;;13.53;71.43;102167.84;7395683;19;20497;-53
2023/06/07 04:24:00;;;;;;;16.15;5.03;;;;;;;13.44;71.61;102174.63;7395762;19;20011;-57
2023/06/07 04:26:29;;;;;;;13.77;4.80;;;;;;;13.26;72.67;102173.13;7395468;19;20467;-57
2023/06/07 04:28:57;;;;;;;15.68;5.68;;;;;;;13.33;72.46;102177.94;7395841;19;20018;-56
2023/06/07 04:31:33;;;;;;;16.00;5.18;;;;;;;13.38;72.52;102170.53;7395416;19;20022;-57
2023/06/07 04:34:04;;;;;;;17.55;5.03;;;;;;;13.57;72.00;102174.69;7395953;19;20011;-54
2023/06/07 04:36:37;;;;;;;17.65;5.07;;;;;;;13.56;71.88;102173.84;7395086;19;20014;-55
2023/06/07 04:39:05;;;;;;;15.52;5.13;;;;;;;13.62;71.86;102175.25;7394759;19;20014;-57
2023/06/07 04:41:35;;;;;;;16.70;5.03;;;;;;;13.69;71.64;102167.72;7394753;19;20018;-57
2023/06/07 04:44:07;;;;;;;18.23;5.07;;;;;;;13.73;71.36;102169.25;7393165;19;20010;-57
2023/06/07 04:46:39;;;;;;;16.50;4.97;;;;;;;13.83;70.78;102167.72;7394640;19;20015;-57
2023/06/07 04:49:07;;;;;;;14.40;5.13;;;;;;;13.76;71.33;102161.06;7395389;19;20088;-57
2023/06/07 04:51:38;;;;;;;16.42;4.93;;;;;;;13.86;71.21;102171.03;7392924;19;20023;-57
2023/06/07 04:54:06;;;;;;;17.25;5.45;;;;;;;13.97;70.75;102162.34;7395394;19;20502;-56
2023/06/07 04:56:33;;;;;;;20.45;5.25;;;;;;;13.98;70.73;102164.03;7394513;19;20081;-57
2023/06/07 04:59:00;;;;;;;17.17;5.28;;;;;;;14.02;70.46;102162.88;7392332;19;20039;-56
2023/06/07 05:01:28;;;;;;;14.70;4.97;;;;;;;13.99;70.75;102162.22;7394636;19;20043;-56
2023/06/07 05:04:00;;;;;;;20.27;5.65;;;;;;;14.03;70.70;102167.25;7395134;19;20022;-56
2023/06/07 05:06:29;;;;;;;13.82;4.80;;;;;;;14.00;70.67;102164.78;7394047;19;20086;-56
2023/06/07 05:08:56;;;;;;;15.43;5.05;;;;;;;13.97;71.03;102170.34;7394809;19;20022;-58
2023/06/07 05:11:23;;;;;;;15.38;4.75;;;;;;;14.01;71.03;102171.84;7393942;19;20124;-58
2023/06/07 05:13:50;;;;;;;15.82;5.07;;;;;;;14.06;70.91;102175.03;7394348;19;20022;-53
2023/06/07 05:16:18;;;;;;;15.65;4.88;;;;;;;14.10;70.79;102167.72;7393524;19;20015;-52
2023/06/07 05:18:53;;;;;;;14.70;5.05;;;;;;;14.19;70.64;102171.56;7394238;19;20376;-53
2023/06/07 05:21:20;;;;;;;16.98;5.18;;;;;;;14.31;70.42;102166.31;7392595;19;20018;-52
2023/06/07 05:23:47;;;;;;;18.20;5.25;;;;;;;14.38;70.21;102177.38;7392537;19;20404;-53
2023/06/07 05:26:15;;;;;;;19.00;5.10;;;;;;;14.28;70.74;102169.16;7393501;19;20039;-54
2023/06/07 05:28:42;;;;;;;17.00;5.47;;;;;;;14.26;71.18;102179.06;7392626;19;20011;-53
2023/06/07 05:31:10;;;;;;;15.05;5.15;;;;;;;14.37;70.67;102179.19;7393888;19;20018;-54
2023/06/07 05:33:38;;;;;;;14.00;4.80;;;;;;;14.37;70.58;102181.84;7394188;19;20018;-54
2023/06/07 05:36:06;;;;;;;16.05;5.15;;;;;;;14.41;70.73;102184.31;7393749;19;20025;-54
2023/06/07 05:38:33;;;;;;;14.13;4.68;;;;;;;14.45;70.52;102176.00;7393931;19;20483;-55
2023/06/07 05:41:00;;;;;;;15.98;5.03;;;;;;;14.47;70.40;102182.09;7392942;19;20031;-54
2023/06/07 05:43:28;;;;;;;18.73;5.47;;;;;;;14.58;70.14;102181.44;7393353;19;20018;-54
2023/06/07 05:45:55;;;;;;;17.35;5.00;;;;;;;14.56;70.16;102170.00;7393240;19;20566;-50
2023/06/07 05:48:22;;;;;;;16.65;4.93;;;;;;;14.59;69.89;102175.97;7394193;19;20026;-54
2023/06/07 05:50:50;;;;;;;17.75;6.20;;;;;;;14.63;69.68;102173.97;7392410;19;20027;-56
2023/06/07 05:53:17;;;;;;;16.88;5.20;;;;;;;14.62;69.35;102170.44;7393653;19;20014;-56
2023/06/07 05:55:45;;;;;;;20.35;6.00;;;;;;;14.70;69.33;102171.75;7390340;19;20024;-57
2023/06/07 05:58:14;;;;;;;21.10;5.20;;;;;;;14.71;69.42;102184.94;7391509;19;20021;-57
2023/06/07 06:00:44;;;;;;;16.70;5.22;;;;;;;14.69;69.42;102186.88;7390574;19;20022;-56
2023/06/07 06:03:11;;;;;;;18.52;4.80;;;;;;;14.73;69.17;102180.38;7393235;19;20030;-54
2023/06/07 06:05:38;;;;;;;14.77;5.20;;;;;;;14.73;69.21;102183.06;7392773;19;20025;-58
2023/06/07 06:08:06;;;;;;;15.77;5.22;;;;;;;14.78;69.55;102183.56;7393036;19;20015;-55
2023/06/07 06:10:33;;;;;;;16.10;5.55;;;;;;;14.93;69.05;102188.81;7392130;19;20047;-55
2023/06/07 06:13:02;;;;;;;18.15;5.60;;;;;;;14.90;68.99;102191.69;7393361;19;20010;-54
2023/06/07 06:15:29;;;;;;;15.30;4.93;;;;;;;14.95;68.99;102187.75;7392786;19;20119;-53
2023/06/07 06:17:56;;;;;;;17.70;5.90;;;;;;;14.96;69.00;102188.63;7392153;19;20018;-63
2023/06/07 06:20:23;;;;;;;15.35;5.15;;;;;;;14.92;69.38;102185.31;7390797;19;20021;-59
2023/06/07 06:22:51;;;;;;;19.63;5.80;;;;;;;15.00;69.16;102188.28;7392090;19;20018;-60
2023/06/07 06:25:18;;;;;;;16.45;5.47;;;;;;;14.99;68.81;102191.06;7392069;19;20022;-60
2023/06/07 06:27:46;;;;;;;15.88;5.43;;;;;;;15.01;68.63;102192.66;7390554;19;20022;-60
2023/06/07 06:30:13;;;;;;;13.45;4.93;;;;;;;15.14;68.20;102200.66;7391987;19;20019;-60
2023/06/07 06:32:40;;;;;;;18.00;4.90;;;;;;;15.27;67.94;102204.19;7391683;19;20031;-61
2023/06/07 06:35:08;;;;;;;13.43;4.90;;;;;;;15.30;67.77;102208.44;7387022;19;20014;-59
2023/06/07 06:37:35;;;;;;;16.27;4.97;;;;;;;15.34;67.59;102204.63;7389506;19;20081;-60
2023/06/07 06:40:04;;;;;;;16.50;4.78;;;;;;;15.38;67.62;102200.78;7388676;19;20022;-59
2023/06/07 06:42:32;;;;;;;16.52;5.13;;;;;;;15.36;67.17;102200.84;7391083;19;20023;-60
2023/06/07 06:44:59;;;;;;;13.38;4.80;;;;;;;15.44;67.47;102199.47;7391020;19;20014;-60
2023/06/07 06:47:26;;;;;;;14.77;5.13;;;;;;;15.40;67.71;102197.97;7387482;19;20022;-60
2023/06/07 06:49:54;;;;;;;15.48;4.95;;;;;;;15.52;67.50;102195.28;7389897;19;20022;-59
2023/06/07 06:52:21;;;;;;;14.43;5.20;;;;;;;15.56;67.21;102204.78;7387793;19;20031;-59
2023/06/07 06:54:48;;;;;;;13.48;4.97;;;;;;;15.51;67.12;102206.06;7392461;19;20018;-59
2023/06/07 06:57:15;;;;;;;15.10;4.93;;;;;;;15.53;67.16;102209.47;7387539;19;20478;-59
2023/06/07 06:59:43;;;;;;;14.23;4.95;;;;;;;15.59;67.00;102195.69;7389584;19;20023;-59
2023/06/07 07:02:10;;;;;;;14.50;4.97;;;;;;;15.68;66.94;102207.56;7390578;19;20913;-60
2023/06/07 07:04:38;;;;;;;15.15;4.57;;;;;;;15.78;66.71;102206.78;7392690;19;20039;-60
2023/06/07 07:07:05;;;;;;;15.57;5.18;;;;;;;15.82;66.64;102205.59;7387044;19;20507;-60
2023/06/07 07:09:33;;;;;;;18.52;5.53;;;;;;;15.81;66.55;102197.72;7395375;19;20022;-60
2023/06/07 07:12:00;;;;;;;14.25;5.00;;;;;;;15.79;66.50;102196.94;7388590;19;20015;-60
2023/06/07 07:14:27;;;;;;;17.90;4.93;;;;;;;15.79;65.91;102200.47;7388962;19;20019;-60
2023/06/07 07:16:54;;;;;;;13.43;4.32;;;;;;;15.78;65.20;102201.44;7387852;19;20966;-60
2023/06/07 07:19:22;;;;;;;14.43;4.53;;;;;;;15.90;65.01;102210.38;7389800;19;20011;-60
2023/06/07 07:21:51;;;;;;;16.05;4.30;;;;;;;15.98;64.60;102207.16;7389786;19;20026;-61
2023/06/07 07:24:18;;;;;;;14.20;4.15;;;;;;;16.05;64.16;102211.09;7393875;19;20043;-60
2023/06/07 07:26:46;;;;;;;13.60;4.00;;;;;;;16.17;63.92;102210.19;7388708;19;20015;-61
2023/06/07 07:29:13;;;;;;;13.98;3.60;;;;;;;16.25;63.25;102206.94;7390679;19;20035;-61
2023/06/07 07:31:40;;;;;;;11.77;3.80;;;;;;;16.26;62.95;102208.66;7389867;19;20019;-60
2023/06/07 07:34:08;;;;;;;13.65;3.70;;;;;;;16.35;63.04;102207.13;7392685;19;20487;-61
2023/06/07 07:36:36;;;;;;;12.18;3.45;;;;;;;16.41;63.19;102202.16;7389671;19;20022;-61
2023/06/07 07:39:06;;;;;;;12.15;3.80;;;;;;;16.49;63.08;102204.25;7390072;19;20018;-61
2023/06/07 07:41:34;;;;;;;14.75;3.70;;;;;;;16.51;63.05;102205.84;7388973;19;20010;-60
2023/06/07 07:44:01;;;;;;;11.40;3.65;;;;;;;16.57;62.67;102207.22;7389198;19;20010;-61
2023/06/07 07:46:28;;;;;;;16.30;4.03;;;;;;;16.71;62.28;102206.13;7393077;19;20018;-60
2023/06/07 07:48:56;;;;;;;11.68;4.38;;;;;;;16.78;62.37;102207.41;7390173;19;20099;-61
2023/06/07 07:51:23;;;;;;;9.77;3.85;;;;;;;16.78;61.88;102210.94;7386258;19;20053;-60
2023/06/07 07:53:53;;;;;;;11.57;3.75;;;;;;;16.78;62.06;102204.72;7393216;19;20018;-60
2023/06/07 07:56:23;;;;;;;13.02;3.83;;;;;;;16.76;62.11;102198.66;7392045;19;20519;-59
2023/06/07 07:58:50;;;;;;;14.57;4.00;;;;;;;16.78;62.03;102208.25;7388868;19;20022;-59
2023/06/07 08:01:19;;;;;;;12.57;4.28;;;;;;;16.81;62.07;102204.50;7385564;19;20022;-60
2023/06/07 08:03:47;;;;;;;15.30;4.20;;;;;;;16.86;61.92;102202.31;7392200;19;20069;-60
2023/06/07 08:06:15;;;;;;;10.77;3.63;;;;;;;16.87;62.54;102206.72;7387945;19;20014;-60
2023/06/07 08:08:47;;;;;;;9.25;3.70;;;;;;;16.95;61.98;102206.97;7389338;19;20117;-60
2023/06/07 08:11:14;;;;;;;12.35;3.95;;;;;;;16.96;62.14;102206.00;7387889;19;20451;-60
2023/06/07 08:13:41;;;;;;;14.05;3.50;;;;;;;17.03;61.67;102204.56;7388813;19;20082;-60
2023/06/07 08:16:08;;;;;;;11.95;3.75;;;;;;;17.05;61.73;102205.25;7388171;19;20011;-60
2023/06/07 08:18:36;;;;;;;12.07;4.38;;;;;;;17.08;61.59;102206.88;7390773;19;20026;-60
2023/06/07 08:21:03;;;;;;;13.32;4.22;;;;;;;17.10;60.97;102207.59;7393453;19;20618;-60
2023/06/07 08:23:31;;;;;;;14.27;3.80;;;;;;;17.18;60.87;102207.84;7398723;19;20014;-60
2023/06/07 08:25:59;;;;;;;13.25;3.70;;;;;;;17.19;60.59;102206.03;7398837;19;20023;-61
2023/06/07 08:28:26;;;;;;;15.95;4.68;;;;;;;17.26;60.51;102202.75;7395460;19;20026;-61
2023/06/07 08:30:54;;;;;;;11.98;3.50;;;;;;;17.38;60.15;102213.47;7395349;19;20135;-60
2023/06/07 08:33:21;;;;;;;12.30;3.95;;;;;;;17.39;60.55;102210.66;7399216;19;20010;-61
2023/06/07 08:35:49;;;;;;;13.15;3.75;;;;;;;17.40;60.46;102204.34;7394221;19;20042;-60
2023/06/07 08:38:16;;;;;;;14.13;4.47;;;;;;;17.42;60.87;102199.69;7396805;19;20014;-60
2023/06/07 08:40:43;;;;;;;11.40;4.03;;;;;;;17.41;60.82;102200.69;7393049;19;20049;-60
2023/06/07 08:43:10;;;;;;;11.45;3.75;;;;;;;17.44;60.72;102199.59;7395357;19;20467;-60
2023/06/07 08:45:38;;;;;;;11.35;4.10;;;;;;;17.49;60.84;102213.47;7393985;19;20018;-60
2023/06/07 08:48:11;;;;;;;12.80;4.35;;;;;;;17.56;60.38;102201.28;7395119;19;20081;-59
2023/06/07 08:50:41;;;;;;;13.25;4.20;;;;;;;17.61;60.30;102207.13;7394393;19;20411;-59
2023/06/07 08:53:13;;;;;;;11.68;4.28;;;;;;;17.65;60.40;102197.00;7397537;19;20018;-60
2023/06/07 08:55:42;;;;;;;10.90;4.07;;;;;;;17.68;60.38;102199.44;7397236;19;20021;-60
2023/06/07 08:58:11;;;;;;;12.88;4.45;;;;;;;17.70;60.62;102203.69;7394740;19;20026;-60
2023/06/07 09:00:39;;;;;;;13.38;4.40;;;;;;;17.77;60.68;102207.59;7392917;19;20029;-60
2023/06/07 09:03:06;;;;;;;14.63;4.68;;;;;;;17.81;59.65;102205.53;7398086;19;20093;-60
2023/06/07 09:05:34;;;;;;;11.65;4.20;;;;;;;17.81;59.39;102202.00;7393681;19;20025;-61
2023/06/07 09:08:02;;;;;;;14.10;4.60;;;;;;;17.93;58.88;102206.38;7395556;19;20022;-61
2023/06/07 09:10:30;;;;;;;10.75;4.03;;;;;;;17.98;58.75;102205.03;7393587;19;20043;-61
2023/06/07 09:12:57;;;;;;;13.82;4.10;;;;;;;18.02;58.79;102205.63;7394582;19;20014;-61
2023/06/07 09:15:24;;;;;;;12.18;4.05;;;;;;;18.06;58.45;102199.03;7394203;19;20019;-60
2023/06/07 09:17:56;;;;;;;14.85;4.85;;;;;;;18.13;58.28;102202.91;7394435;19;20102;-62
2023/06/07 09:20:25;;;;;;;10.00;3.63;;;;;;;18.15;58.46;102200.94;7392914;19;20029;-60
2023/06/07 09:23:01;;;;;;;12.63;4.32;;;;;;;18.18;58.63;102198.00;7394161;19;20019;-61
2023/06/07 09:25:30;;;;;;;13.73;4.07;;;;;;;18.21;58.50;102191.56;7394303;19;20047;-60
2023/06/07 09:27:57;;;;;;;12.90;4.45;;;;;;;18.30;58.52;102200.66;7394169;19;20126;-61
2023/06/07 09:30:25;;;;;;;14.88;3.90;;;;;;;18.31;58.97;102203.19;7392719;19;20036;-61
2023/06/07 09:32:53;;;;;;;13.10;3.83;;;;;;;18.33;58.92;102200.41;7392723;19;20019;-60
2023/06/07 09:35:20;;;;;;;11.95;4.30;;;;;;;18.34;58.94;102189.53;7392562;19;20022;-61
2023/06/07 09:37:52;;;;;;;13.82;4.18;;;;;;;18.38;58.85;102190.97;7390849;19;20053;-61
2023/06/07 09:40:21;;;;;;;12.65;3.88;;;;;;;18.45;59.09;102189.50;7393245;19;20026;-61
2023/06/07 09:42:58;;;;;;;10.50;3.65;;;;;;;18.57;58.25;102184.91;7392578;19;20380;-61
2023/06/07 09:45:27;;;;;;;11.20;4.20;;;;;;;18.56;57.84;102185.06;7393532;19;20015;-61
2023/06/07 09:48:02;;;;;;;13.80;3.72;;;;;;;18.64;58.29;102188.78;7393463;19;20010;-60
2023/06/07 09:50:30;;;;;;;12.38;3.60;;;;;;;18.63;58.13;102186.25;7393092;19;20022;-60
2023/06/07 09:52:58;;;;;;;15.30;4.40;;;;;;;18.66;58.04;102169.84;7392375;19;20582;-61
2023/06/07 09:55:28;;;;;;;10.73;4.22;;;;;;;18.76;57.42;102170.81;7391433;19;20043;-61
2023/06/07 09:57:55;;;;;;;11.27;3.75;;;;;;;18.83;57.73;102171.16;7392768;19;20015;-61
2023/06/07 10:00:25;;;;;;;13.48;3.65;;;;;;;18.91;57.54;102165.97;7392104;19;20019;-60
2023/06/07 10:03:05;;;;;;;10.75;3.70;;;;;;;18.95;56.93;102172.75;7392750;19;20019;-60
2023/06/07 10:05:34;;;;;;;11.35;3.60;;;;;;;18.92;57.33;102170.34;7390824;19;20526;-61
2023/06/07 10:08:02;;;;;;;11.38;3.78;;;;;;;18.96;56.96;102171.78;7391535;19;20039;-61
2023/06/07 10:10:30;;;;;;;11.82;3.70;;;;;;;18.97;57.22;102168.13;7392609;19;20014;-61
2023/06/07 10:12:58;;;;;;;15.30;3.90;;;;;;;19.06;56.92;102171.84;7393282;19;20051;-61
2023/06/07 10:15:26;;;;;;;11.52;3.67;;;;;;;19.08;56.99;102176.09;7393183;19;20046;-61
2023/06/07 10:18:15;;;;;;;10.63;3.80;;;;;;;19.20;56.37;102168.81;7393806;19;20018;-61
2023/06/07 10:20:56;;;;;;;13.20;3.97;;;;;;;19.17;56.74;102175.28;7391246;19;20029;-61
2023/06/07 10:23:34;;;;;;;10.77;3.63;;;;;;;19.28;55.87;102160.91;7391182;19;20014;-61
2023/06/07 10:26:15;;;;;;;11.30;3.70;;;;;;;19.34;55.27;102162.19;7392123;19;20029;-61
2023/06/07 10:28:49;;;;;;;12.10;4.40;;;;;;;19.33;55.76;102155.97;7391643;19;20021;-60
2023/06/07 10:31:18;;;;;;;13.32;4.13;;;;;;;19.35;55.89;102155.88;7390010;19;20082;-60
2023/06/07 10:33:50;;;;;;;12.95;3.75;;;;;;;19.39;55.68;102163.50;7392892;19;20025;-60
2023/06/07 10:36:23;;;;;;;12.38;3.35;;;;;;;19.42;55.83;102155.19;7391207;19;20039;-61
2023/06/07 10:38:54;;;;;;;12.95;3.47;;;;;;;19.46;55.74;102155.75;7392533;19;20020;-61
2023/06/07 10:41:21;;;;;;;11.65;3.33;;;;;;;19.48;55.34;102160.00;7389607;19;20023;-60
2023/06/07 10:43:49;;;;;;;11.35;3.72;;;;;;;19.49;55.22;102155.47;7390821;19;20018;-60
2023/06/07 10:46:21;;;;;;;11.60;3.95;;;;;;;19.53;55.57;102162.25;7389744;19;20025;-60
2023/06/07 10:48:49;;;;;;;15.38;4.00;;;;;;;19.61;54.87;102162.44;7391168;19;20018;-62
2023/06/07 10:51:17;;;;;;;10.57;3.25;;;;;;;19.56;54.80;102159.31;7391202;19;20031;-61
2023/06/07 10:53:48;;;;;;;10.27;3.53;;;;;;;19.60;54.50;102155.34;7391755;19;20015;-61
2023/06/07 10:56:51;;;;;;;9.63;3.60;;;;;;;19.65;54.38;102157.66;7390158;19;20018;-60
2023/06/07 10:59:22;;;;;;;10.20;3.40;;;;;;;19.67;54.63;102147.63;7390638;19;20023;-61
2023/06/07 11:01:52;;;;;;;11.45;3.55;;;;;;;19.74;54.22;102151.47;7390206;19;20018;-62
2023/06/07 11:04:36;;;;;;;10.73;3.70;;;;;;;19.84;53.89;102154.16;7391753;19;20018;-61
2023/06/07 11:07:25;;;;;;;11.95;3.95;;;;;;;19.86;53.26;102152.19;7390386;19;20089;-60
2023/06/07 11:10:02;;;;;;;10.88;3.47;;;;;;;19.93;53.79;102156.03;7391200;19;20486;-61
2023/06/07 11:12:44;;;;;;;8.77;3.03;;;;;;;20.00;52.63;102151.78;7391290;19;20034;-61
2023/06/07 11:15:36;;;;;;;8.43;3.47;;;;;;;19.98;52.88;102148.38;7391648;19;20011;-61
2023/06/07 11:18:07;;;;;;;11.20;3.47;;;;;;;20.06;52.88;102144.97;7389536;19;20010;-60
2023/06/07 11:20:44;;;;;;;9.73;3.42;;;;;;;20.13;52.70;102151.50;7389457;19;20042;-61
2023/06/07 11:23:24;;;;;;;9.40;3.35;;;;;;;20.16;52.42;102153.91;7391418;19;20035;-60
2023/06/07 11:25:53;;;;;;;12.60;3.72;;;;;;;20.07;52.65;102152.06;7390704;19;20018;-61